Time;durP1;ratioP1;P1;durP2;ratioP2;P2;SDS_P1;SDS_P2;PMS_P1;PMS_P2;Temp;Humidity;BMP_temperature;BMP_pressure;BME280_temperature;BME280_humidity;BME280_pressure;Samples;Min_cycle;Max_cycle;Signal;HPM_P1;HPM_P2
2023/08/04 00:00:16;;;;;;;0.60;0.60;;;21.40;74.40;;;;;;4998581;28;20240;-72
2023/08/04 00:02:42;;;;;;;0.60;0.60;;;21.40;74.40;;;;;;4993442;28;20727;-72
2023/08/04 00:05:08;;;;;;;0.55;0.55;;;21.40;74.50;;;;;;5005148;28;20180;-71
2023/08/04 00:07:36;;;;;;;2.05;0.80;;;21.40;74.40;;;;;;4972065;28;20690;-71
2023/08/04 00:10:03;;;;;;;0.55;0.55;;;21.30;74.30;;;;;;4988280;28;20275;-71
2023/08/04 00:12:30;;;;;;;0.65;0.60;;;21.30;74.30;;;;;;4981636;28;20199;-70
2023/08/04 00:14:57;;;;;;;0.50;0.50;;;21.40;74.40;;;;;;5003558;28;20211;-70
2023/08/04 00:17:22;;;;;;;1.08;0.70;;;21.40;74.40;;;;;;4984768;28;20208;-71
2023/08/04 00:19:48;;;;;;;0.60;0.60;;;21.30;74.30;;;;;;4992909;28;20176;-71
2023/08/04 00:22:14;;;;;;;0.60;0.60;;;21.30;74.30;;;;;;4973458;28;20176;-71
2023/08/04 00:24:39;;;;;;;0.80;0.80;;;21.40;74.40;;;;;;4979641;28;20191;-72
2023/08/04 00:27:05;;;;;;;0.80;0.80;;;21.30;74.30;;;;;;4987650;28;20215;-71
2023/08/04 00:29:31;;;;;;;0.57;0.57;;;21.30;74.30;;;;;;4981264;28;20252;-69
2023/08/04 00:31:57;;;;;;;0.60;0.60;;;21.30;74.30;;;;;;5003253;28;20192;-71
2023/08/04 00:34:23;;;;;;;0.50;0.50;;;21.30;74.30;;;;;;4990138;28;20188;-72
2023/08/04 00:36:49;;;;;;;0.45;0.45;;;21.30;74.30;;;;;;4961227;28;20216;-71
2023/08/04 00:39:15;;;;;;;1.17;0.52;;;21.30;74.30;;;;;;5008602;28;20544;-71
2023/08/04 00:41:41;;;;;;;0.45;0.45;;;21.30;74.30;;;;;;4965255;28;20240;-71
2023/08/04 00:44:08;;;;;;;0.60;0.60;;;21.30;74.30;;;;;;4992766;28;20235;-71
2023/08/04 00:46:35;;;;;;;0.70;0.70;;;21.30;74.30;;;;;;4976398;28;20181;-71
2023/08/04 00:49:02;;;;;;;0.68;0.60;;;21.30;74.30;;;;;;5011352;28;20196;-71
2023/08/04 00:51:31;;;;;;;0.75;0.60;;;21.30;74.30;;;;;;4994823;28;20257;-71
2023/08/04 00:53:58;;;;;;;1.10;0.80;;;21.30;74.30;;;;;;4979213;28;20283;-70
2023/08/04 00:56:23;;;;;;;0.52;0.52;;;21.30;74.30;;;;;;4987512;28;20231;-71
2023/08/04 00:58:49;;;;;;;0.57;0.57;;;21.30;74.30;;;;;;4970172;28;20208;-70
2023/08/04 01:01:15;;;;;;;0.88;0.60;;;21.30;74.30;;;;;;4980295;28;20180;-71
2023/08/04 01:03:41;;;;;;;0.60;0.60;;;21.30;74.30;;;;;;4993447;28;20192;-71
2023/08/04 01:06:39;;;;;;;0.60;0.60;;;21.30;74.30;;;;;;5004011;28;20184;-71
2023/08/04 01:09:26;;;;;;;0.75;0.75;;;21.30;74.30;;;;;;4987201;28;20188;-71
2023/08/04 01:12:14;;;;;;;0.50;0.50;;;21.20;74.20;;;;;;4977647;28;20215;-71
2023/08/04 01:14:45;;;;;;;0.60;0.60;;;21.30;74.30;;;;;;4999721;28;20188;-71
2023/08/04 01:17:31;;;;;;;0.85;0.77;;;21.30;74.30;;;;;;4994744;28;20331;-71
2023/08/04 01:19:58;;;;;;;0.50;0.50;;;21.30;74.30;;;;;;4995359;28;20274;-71
2023/08/04 01:22:25;;;;;;;0.50;0.50;;;21.30;74.30;;;;;;4981248;28;20180;-72
2023/08/04 01:24:53;;;;;;;0.70;0.70;;;21.30;74.30;;;;;;4982670;28;20663;-71
2023/08/04 01:27:49;;;;;;;1.05;0.77;;;21.20;74.20;;;;;;5010519;28;20220;-72
2023/08/04 01:30:24;;;;;;;0.60;0.60;;;21.30;74.30;;;;;;4975520;28;20193;-71
2023/08/04 01:32:50;;;;;;;0.40;0.40;;;21.30;74.30;;;;;;4976616;28;20196;-71
2023/08/04 01:35:16;;;;;;;0.57;0.57;;;21.30;74.30;;;;;;4986701;28;20215;-71
2023/08/04 01:37:43;;;;;;;0.55;0.55;;;21.20;74.20;;;;;;5006383;28;20282;-71
2023/08/04 01:40:11;;;;;;;0.70;0.70;;;21.30;74.30;;;;;;5002978;28;20200;-71
2023/08/04 01:42:38;;;;;;;0.47;0.47;;;21.30;74.30;;;;;;5004829;28;20184;-72
2023/08/04 01:45:05;;;;;;;0.52;0.52;;;21.20;74.20;;;;;;5010622;28;20192;-71
2023/08/04 01:47:30;;;;;;;0.40;0.40;;;21.20;74.20;;;;;;4979809;28;20231;-71
2023/08/04 01:49:56;;;;;;;0.47;0.47;;;21.20;74.20;;;;;;4991474;28;20570;-71
2023/08/04 01:52:22;;;;;;;0.60;0.60;;;21.30;74.30;;;;;;4971453;28;20203;-73
2023/08/04 01:54:48;;;;;;;0.70;0.70;;;21.20;74.20;;;;;;4994600;28;20220;-71
2023/08/04 01:57:14;;;;;;;0.60;0.60;;;21.20;74.20;;;;;;4970044;28;20196;-71
2023/08/04 01:59:40;;;;;;;0.60;0.60;;;21.20;74.20;;;;;;5003324;28;20573;-70
2023/08/04 02:02:07;;;;;;;0.45;0.43;;;21.20;74.20;;;;;;4961532;28;20184;-70
2023/08/04 02:04:32;;;;;;;0.50;0.50;;;21.20;74.20;;;;;;4970575;28;20196;-71
2023/08/04 02:06:58;;;;;;;0.55;0.55;;;21.20;74.20;;;;;;4984190;28;20209;-71
2023/08/04 02:09:27;;;;;;;0.43;0.43;;;21.20;74.20;;;;;;4972164;28;20184;-70
2023/08/04 02:11:54;;;;;;;0.55;0.40;;;21.20;74.20;;;;;;4978104;28;20239;-71
2023/08/04 02:14:21;;;;;;;0.68;0.65;;;21.20;74.20;;;;;;4986484;28;20212;-71
2023/08/04 02:16:47;;;;;;;0.55;0.55;;;21.20;74.20;;;;;;4977530;28;20223;-71
2023/08/04 02:19:13;;;;;;;0.80;0.60;;;21.20;74.20;;;;;;4986589;28;20180;-71
2023/08/04 02:21:38;;;;;;;0.50;0.50;;;21.20;74.20;;;;;;4991043;28;20200;-70
2023/08/04 02:24:05;;;;;;;0.70;0.50;;;21.20;74.20;;;;;;4994696;28;20185;-70
2023/08/04 02:26:31;;;;;;;0.40;0.40;;;21.20;74.20;;;;;;4990023;28;20652;-71
2023/08/04 02:28:57;;;;;;;1.23;0.52;;;21.20;74.20;;;;;;4984443;28;20231;-70
2023/08/04 02:31:27;;;;;;;0.57;0.57;;;21.20;74.20;;;;;;4974654;28;20648;-70
2023/08/04 02:33:54;;;;;;;0.57;0.50;;;21.30;74.30;;;;;;4966750;28;20565;-70
2023/08/04 02:36:21;;;;;;;0.60;0.60;;;21.20;74.20;;;;;;4982682;28;20223;-72
2023/08/04 02:38:46;;;;;;;0.50;0.50;;;21.20;74.20;;;;;;4986020;28;20259;-71
2023/08/04 02:41:12;;;;;;;0.63;0.60;;;21.20;74.20;;;;;;4974795;28;20185;-71
2023/08/04 02:43:39;;;;;;;0.40;0.40;;;21.20;74.20;;;;;;4989991;28;20180;-70
2023/08/04 02:46:05;;;;;;;0.80;0.73;;;21.20;74.20;;;;;;4994082;28;20192;-69
2023/08/04 02:48:33;;;;;;;0.45;0.45;;;21.20;74.20;;;;;;4982941;28;20204;-70
2023/08/04 02:51:08;;;;;;;0.80;0.80;;;21.20;74.20;;;;;;4982812;28;20195;-71
2023/08/04 02:53:42;;;;;;;0.70;0.70;;;21.20;74.20;;;;;;4982814;28;20188;-71
2023/08/04 02:56:10;;;;;;;0.50;0.50;;;21.20;74.20;;;;;;4985203;28;20207;-70
2023/08/04 02:58:36;;;;;;;0.40;0.40;;;21.20;74.20;;;;;;4979260;28;20209;-71
2023/08/04 03:01:02;;;;;;;0.60;0.60;;;21.20;74.20;;;;;;4974280;28;20199;-71
2023/08/04 03:03:28;;;;;;;0.70;0.68;;;21.20;74.20;;;;;;4982398;28;20193;-71
2023/08/04 03:06:00;;;;;;;0.50;0.50;;;21.20;74.20;;;;;;4966507;28;20314;-71
2023/08/04 03:08:26;;;;;;;0.50;0.50;;;21.20;74.20;;;;;;4974110;28;20209;-71
2023/08/04 03:10:53;;;;;;;0.60;0.60;;;21.20;74.20;;;;;;4974993;28;20201;-71
2023/08/04 03:13:19;;;;;;;0.75;0.65;;;21.20;74.20;;;;;;4989539;28;20189;-71
2023/08/04 03:15:44;;;;;;;0.70;0.65;;;21.20;74.20;;;;;;4989333;28;20688;-71
2023/08/04 03:18:10;;;;;;;0.50;0.50;;;21.20;74.20;;;;;;4969817;28;20199;-71
2023/08/04 03:20:39;;;;;;;1.15;0.40;;;21.20;74.20;;;;;;4968256;28;20192;-71
2023/08/04 03:23:06;;;;;;;0.50;0.50;;;21.20;74.20;;;;;;4994822;28;20196;-71
2023/08/04 03:25:33;;;;;;;0.60;0.60;;;21.20;74.20;;;;;;5008333;28;20207;-71
2023/08/04 03:27:59;;;;;;;0.50;0.50;;;21.20;74.20;;;;;;4987305;28;20220;-71
2023/08/04 03:30:25;;;;;;;0.65;0.60;;;21.20;74.20;;;;;;4977891;28;20180;-70
2023/08/04 03:32:51;;;;;;;0.40;0.40;;;21.20;74.20;;;;;;5008860;28;20254;-71
2023/08/04 03:35:16;;;;;;;0.60;0.60;;;21.10;74.10;;;;;;4969126;28;20208;-74
2023/08/04 03:37:42;;;;;;;0.70;0.70;;;21.10;74.10;;;;;;4992732;28;20235;-71
2023/08/04 03:40:09;;;;;;;0.50;0.50;;;21.10;74.10;;;;;;4994020;28;20195;-70
2023/08/04 03:42:38;;;;;;;0.63;0.63;;;21.10;74.10;;;;;;4991675;28;20183;-71
2023/08/04 03:45:08;;;;;;;0.70;0.60;;;21.10;74.10;;;;;;4978311;28;20196;-70
2023/08/04 03:47:36;;;;;;;0.60;0.60;;;21.10;74.10;;;;;;4985079;28;20221;-70
2023/08/04 03:50:04;;;;;;;0.50;0.50;;;21.10;74.10;;;;;;5009820;28;20203;-72
2023/08/04 03:52:30;;;;;;;0.70;0.70;;;21.10;74.10;;;;;;4975243;28;20601;-71
2023/08/04 03:54:57;;;;;;;0.55;0.55;;;21.10;74.10;;;;;;4986117;28;20220;-71
2023/08/04 03:57:23;;;;;;;0.40;0.30;;;21.10;74.10;;;;;;4975453;28;20211;-72
2023/08/04 03:59:50;;;;;;;0.55;0.55;;;21.10;74.10;;;;;;4977292;28;20204;-71
2023/08/04 04:02:16;;;;;;;0.50;0.50;;;21.10;74.10;;;;;;4984859;28;20197;-70
2023/08/04 04:04:42;;;;;;;0.50;0.50;;;21.10;74.10;;;;;;4961358;28;20263;-71
2023/08/04 04:07:08;;;;;;;0.50;0.50;;;21.20;74.20;;;;;;4995163;28;20215;-71
2023/08/04 04:09:33;;;;;;;0.80;0.30;;;21.10;74.10;;;;;;4972664;28;20184;-71
2023/08/04 04:11:59;;;;;;;0.50;0.50;;;21.10;74.10;;;;;;4962799;28;20682;-70
2023/08/04 04:14:25;;;;;;;0.75;0.63;;;21.10;74.10;;;;;;5005885;28;20223;-71
2023/08/04 04:16:50;;;;;;;0.50;0.50;;;21.10;74.10;;;;;;4979561;28;20208;-71
2023/08/04 04:19:16;;;;;;;0.60;0.50;;;21.10;74.10;;;;;;4984731;28;20204;-70
2023/08/04 04:21:42;;;;;;;0.55;0.55;;;21.10;74.10;;;;;;4983757;28;20196;-71
2023/08/04 04:24:08;;;;;;;0.45;0.45;;;21.10;74.10;;;;;;4977773;28;20216;-71
2023/08/04 04:26:33;;;;;;;0.30;0.30;;;21.10;74.10;;;;;;4998366;28;20195;-70
2023/08/04 04:28:59;;;;;;;0.40;0.40;;;21.10;74.10;;;;;;4962531;28;20208;-71
2023/08/04 04:31:25;;;;;;;0.50;0.50;;;21.10;74.10;;;;;;5000831;28;20667;-71
2023/08/04 04:33:50;;;;;;;0.50;0.50;;;21.10;74.10;;;;;;4976614;28;20185;-71
2023/08/04 04:36:16;;;;;;;0.95;0.40;;;21.10;74.10;;;;;;5004143;28;20671;-70
2023/08/04 04:38:42;;;;;;;0.50;0.50;;;21.10;74.10;;;;;;4979782;28;20205;-71
2023/08/04 04:41:09;;;;;;;0.50;0.50;;;21.10;74.10;;;;;;4977331;28;20201;-71
2023/08/04 04:43:35;;;;;;;0.50;0.50;;;21.10;74.10;;;;;;4976300;28;20223;-71
2023/08/04 04:46:03;;;;;;;0.55;0.52;;;21.10;74.10;;;;;;4993598;28;20251;-71
2023/08/04 04:48:29;;;;;;;0.68;0.50;;;21.10;74.10;;;;;;4990591;28;20255;-71
2023/08/04 04:50:55;;;;;;;0.63;0.63;;;21.10;74.10;;;;;;4992182;28;20192;-71
2023/08/04 04:53:21;;;;;;;0.40;0.40;;;21.10;74.10;;;;;;4960156;28;20196;-71
2023/08/04 04:55:47;;;;;;;0.57;0.57;;;21.10;74.10;;;;;;4976280;28;20267;-71
2023/08/04 04:58:13;;;;;;;0.50;0.50;;;21.10;74.10;;;;;;5002837;28;20203;-71
2023/08/04 05:00:39;;;;;;;0.60;0.60;;;21.10;74.10;;;;;;4997580;28;20216;-70
2023/08/04 05:03:06;;;;;;;0.45;0.45;;;21.10;74.10;;;;;;4992093;28;20184;-71
2023/08/04 05:05:36;;;;;;;0.40;0.40;;;21.10;74.10;;;;;;4993089;28;20197;-71
2023/08/04 05:08:02;;;;;;;0.47;0.40;;;21.10;74.10;;;;;;4999686;28;20201;-71
2023/08/04 05:10:28;;;;;;;0.50;0.50;;;21.10;74.10;;;;;;4980910;28;20184;-71
2023/08/04 05:12:54;;;;;;;0.55;0.55;;;21.10;74.10;;;;;;4970811;28;20254;-71
2023/08/04 05:15:20;;;;;;;0.40;0.40;;;21.10;74.10;;;;;;5011663;28;20212;-71
2023/08/04 05:17:46;;;;;;;0.73;0.70;;;21.10;74.10;;;;;;4995033;28;20223;-71
2023/08/04 05:20:13;;;;;;;0.60;0.60;;;21.10;74.10;;;;;;4995264;28;20234;-73
2023/08/04 05:22:39;;;;;;;0.50;0.50;;;21.10;74.10;;;;;;4964844;28;20192;-71
2023/08/04 05:25:06;;;;;;;0.50;0.50;;;21.10;74.10;;;;;;4983722;28;20189;-71
2023/08/04 05:27:32;;;;;;;0.52;0.52;;;21.10;74.90;;;;;;4988471;28;20628;-71
2023/08/04 05:29:58;;;;;;;0.60;0.60;;;21.10;74.10;;;;;;4970778;28;20199;-71
2023/08/04 05:32:23;;;;;;;0.70;0.70;;;21.10;74.30;;;;;;4995507;28;20246;-71
2023/08/04 05:34:49;;;;;;;0.50;0.50;;;21.10;74.30;;;;;;4979522;28;20191;-71
2023/08/04 05:37:15;;;;;;;0.95;0.70;;;21.10;74.40;;;;;;5011298;28;20207;-71
2023/08/04 05:39:40;;;;;;;0.75;0.60;;;21.10;74.40;;;;;;5011038;28;20202;-72
2023/08/04 05:42:06;;;;;;;0.73;0.73;;;21.10;74.40;;;;;;4997878;28;20246;-73
2023/08/04 05:44:32;;;;;;;0.60;0.60;;;21.10;74.40;;;;;;4991313;28;20189;-71
2023/08/04 05:46:59;;;;;;;0.70;0.70;;;21.10;74.40;;;;;;4983609;28;20211;-71
2023/08/04 05:49:25;;;;;;;0.40;0.40;;;21.10;74.50;;;;;;4990709;28;20177;-71
2023/08/04 05:51:51;;;;;;;0.45;0.43;;;21.10;74.50;;;;;;5007144;28;20207;-72
2023/08/04 05:54:17;;;;;;;0.50;0.50;;;21.10;74.50;;;;;;4967213;28;20189;-71
2023/08/04 05:56:42;;;;;;;0.60;0.60;;;21.10;74.50;;;;;;4974666;28;20212;-71
2023/08/04 05:59:08;;;;;;;0.88;0.50;;;21.10;74.60;;;;;;4960707;28;20671;-71
2023/08/04 06:01:34;;;;;;;0.40;0.40;;;21.10;74.50;;;;;;4989156;28;20664;-71
2023/08/04 06:04:00;;;;;;;0.50;0.50;;;21.10;74.60;;;;;;4991850;28;20217;-71
2023/08/04 06:06:26;;;;;;;0.73;0.70;;;21.10;74.60;;;;;;4989607;28;20200;-72
2023/08/04 06:08:52;;;;;;;0.52;0.52;;;21.10;74.60;;;;;;5007947;28;20215;-71
2023/08/04 06:11:18;;;;;;;0.50;0.50;;;21.10;74.60;;;;;;5002364;28;20203;-71
2023/08/04 06:13:44;;;;;;;1.25;0.70;;;21.10;74.60;;;;;;4970165;28;20188;-72
2023/08/04 06:16:09;;;;;;;0.50;0.50;;;21.10;74.70;;;;;;5008594;28;20672;-71
2023/08/04 06:18:35;;;;;;;0.50;0.50;;;21.10;74.70;;;;;;4988215;28;20204;-71
2023/08/04 06:21:01;;;;;;;0.77;0.60;;;21.10;74.70;;;;;;5001889;28;20570;-71
2023/08/04 06:23:26;;;;;;;0.60;0.60;;;21.10;74.70;;;;;;4987174;28;20211;-70
2023/08/04 06:25:52;;;;;;;0.70;0.70;;;21.10;74.80;;;;;;4986462;28;20194;-71
2023/08/04 06:28:18;;;;;;;0.63;0.60;;;21.10;74.80;;;;;;5003473;28;20587;-70
2023/08/04 06:30:44;;;;;;;0.98;0.70;;;21.10;74.80;;;;;;4994245;28;20188;-71
2023/08/04 06:33:10;;;;;;;0.50;0.50;;;21.10;74.80;;;;;;4962137;28;20204;-72
2023/08/04 06:35:41;;;;;;;1.10;0.60;;;21.10;74.80;;;;;;4989127;28;20205;-70
2023/08/04 06:38:08;;;;;;;0.47;0.47;;;21.10;74.80;;;;;;4958503;28;20209;-71
2023/08/04 06:40:34;;;;;;;0.50;0.50;;;21.10;74.90;;;;;;5006673;28;20206;-73
2023/08/04 06:43:00;;;;;;;0.60;0.60;;;21.10;74.90;;;;;;4977780;28;20188;-71
2023/08/04 06:45:27;;;;;;;0.40;0.40;;;21.10;75.00;;;;;;4982785;28;20189;-71
2023/08/04 06:47:53;;;;;;;0.75;0.70;;;21.10;74.90;;;;;;5006153;28;20722;-71
2023/08/04 06:50:19;;;;;;;0.40;0.40;;;21.10;75.00;;;;;;5005296;28;20188;-70
2023/08/04 06:52:45;;;;;;;0.50;0.50;;;21.10;74.90;;;;;;4983302;28;20283;-70
2023/08/04 06:55:10;;;;;;;1.10;0.80;;;21.10;75.00;;;;;;5004193;28;20251;-71
2023/08/04 06:57:36;;;;;;;0.40;0.40;;;21.10;74.90;;;;;;4984054;28;20216;-70
2023/08/04 07:00:03;;;;;;;0.60;0.60;;;21.10;75.00;;;;;;4977959;28;20216;-70
2023/08/04 07:02:29;;;;;;;0.73;0.70;;;21.10;75.10;;;;;;4990405;28;20226;-71
2023/08/04 07:04:55;;;;;;;0.65;0.65;;;21.10;75.00;;;;;;4989812;28;20192;-71
2023/08/04 07:07:20;;;;;;;0.60;0.60;;;21.10;75.00;;;;;;4972559;28;20223;-71
2023/08/04 07:09:46;;;;;;;0.70;0.70;;;21.10;75.00;;;;;;4989425;28;20224;-71
2023/08/04 07:12:12;;;;;;;0.70;0.70;;;21.10;75.10;;;;;;5000812;28;20191;-72
2023/08/04 07:14:38;;;;;;;0.57;0.57;;;21.10;75.00;;;;;;4973509;28;20192;-71
2023/08/04 07:17:04;;;;;;;1.30;0.75;;;21.10;75.00;;;;;;4987912;28;20588;-72
2023/08/04 07:19:30;;;;;;;0.63;0.63;;;21.10;75.10;;;;;;4974015;28;20196;-70
2023/08/04 07:21:55;;;;;;;0.60;0.60;;;21.10;75.00;;;;;;4981329;28;20192;-71
2023/08/04 07:24:21;;;;;;;0.50;0.50;;;21.10;75.10;;;;;;4973058;28;20184;-71
2023/08/04 07:26:47;;;;;;;0.55;0.45;;;21.10;75.10;;;;;;4980789;28;20655;-70
2023/08/04 07:29:13;;;;;;;0.50;0.50;;;21.10;75.10;;;;;;4979106;28;20187;-70
2023/08/04 07:31:39;;;;;;;0.90;0.50;;;21.10;75.20;;;;;;4974839;28;20198;-71
2023/08/04 07:34:05;;;;;;;0.70;0.63;;;21.10;75.10;;;;;;4988000;28;20246;-71
2023/08/04 07:36:31;;;;;;;0.70;0.70;;;21.10;75.10;;;;;;4981432;28;20222;-70
2023/08/04 07:38:56;;;;;;;0.52;0.52;;;21.10;75.10;;;;;;4988570;28;20204;-71
2023/08/04 07:41:26;;;;;;;0.60;0.60;;;21.10;75.20;;;;;;5005061;28;20639;-71
2023/08/04 07:43:52;;;;;;;0.68;0.60;;;21.10;75.10;;;;;;5009061;28;20184;-70
2023/08/04 07:46:27;;;;;;;0.60;0.60;;;21.10;75.20;;;;;;4978047;28;20259;-70
2023/08/04 07:48:53;;;;;;;0.50;0.45;;;21.10;75.20;;;;;;5008816;28;20269;-70
2023/08/04 07:51:21;;;;;;;0.70;0.70;;;21.10;75.30;;;;;;4996926;28;20184;-70
2023/08/04 07:53:47;;;;;;;0.60;0.60;;;21.10;75.20;;;;;;4982523;28;20188;-71
2023/08/04 07:56:14;;;;;;;0.60;0.60;;;21.10;76.00;;;;;;4978623;28;20212;-70
2023/08/04 07:58:40;;;;;;;0.52;0.52;;;21.10;75.10;;;;;;4996841;28;20204;-70
2023/08/04 08:01:05;;;;;;;0.82;0.80;;;21.10;75.10;;;;;;5012584;28;20242;-70
2023/08/04 08:03:33;;;;;;;0.60;0.60;;;21.20;75.30;;;;;;4980674;28;20184;-70
2023/08/04 08:06:00;;;;;;;0.85;0.73;;;21.20;75.20;;;;;;4980504;28;20188;-70
2023/08/04 08:08:27;;;;;;;0.70;0.70;;;21.20;75.00;;;;;;4996171;28;20228;-72
2023/08/04 08:10:53;;;;;;;0.70;0.70;;;21.20;74.90;;;;;;4990032;28;20196;-71
2023/08/04 08:13:20;;;;;;;1.38;0.57;;;21.30;75.00;;;;;;5009063;28;20330;-70
2023/08/04 08:15:46;;;;;;;0.80;0.70;;;21.30;74.90;;;;;;4976928;28;20295;-71
2023/08/04 08:18:11;;;;;;;0.68;0.57;;;21.30;74.80;;;;;;4995028;28;20209;-70
2023/08/04 08:20:42;;;;;;;0.65;0.65;;;21.30;74.80;;;;;;4996220;28;20562;-70
2023/08/04 08:23:09;;;;;;;0.88;0.60;;;21.30;74.70;;;;;;4987426;28;20223;-70
2023/08/04 08:25:36;;;;;;;1.27;0.60;;;21.40;74.90;;;;;;5002220;28;20184;-70
2023/08/04 08:28:03;;;;;;;0.60;0.60;;;21.40;74.90;;;;;;4976627;28;20216;-70
2023/08/04 08:30:29;;;;;;;0.68;0.52;;;21.40;74.90;;;;;;4992783;28;20276;-71
2023/08/04 08:32:55;;;;;;;0.75;0.50;;;21.40;74.90;;;;;;5000927;28;20189;-70
2023/08/04 08:35:21;;;;;;;0.47;0.47;;;21.40;74.90;;;;;;4993455;28;20212;-70
2023/08/04 08:37:46;;;;;;;0.65;0.57;;;21.40;74.50;;;;;;4980052;28;20722;-70
2023/08/04 08:40:12;;;;;;;0.60;0.60;;;21.40;74.70;;;;;;4979003;28;20185;-69
2023/08/04 08:42:38;;;;;;;0.50;0.50;;;21.40;74.70;;;;;;4978899;28;20600;-70
2023/08/04 08:45:05;;;;;;;1.20;0.40;;;21.40;74.40;;;;;;4960442;28;20672;-70
2023/08/04 08:47:36;;;;;;;0.60;0.60;;;21.40;74.40;;;;;;4984144;28;20213;-70
2023/08/04 08:50:06;;;;;;;0.93;0.60;;;21.50;74.50;;;;;;4984206;28;20216;-71
2023/08/04 08:52:38;;;;;;;0.50;0.50;;;21.50;74.60;;;;;;4992324;28;20213;-70
2023/08/04 08:55:05;;;;;;;0.70;0.70;;;21.50;74.50;;;;;;4959899;28;20208;-70
2023/08/04 08:57:32;;;;;;;0.68;0.50;;;21.50;74.50;;;;;;4992133;28;20755;-70
2023/08/04 09:00:01;;;;;;;0.70;0.70;;;21.50;74.50;;;;;;5000245;28;20208;-71
2023/08/04 09:02:27;;;;;;;0.63;0.63;;;21.50;74.50;;;;;;4984752;28;20215;-71
2023/08/04 09:04:53;;;;;;;0.50;0.50;;;21.50;75.30;;;;;;4984070;28;20217;-71
2023/08/04 09:07:22;;;;;;;0.45;0.45;;;21.50;74.50;;;;;;4975459;28;20200;-70
2023/08/04 09:09:48;;;;;;;0.57;0.57;;;21.50;74.50;;;;;;4976166;28;20185;-70
2023/08/04 09:12:16;;;;;;;0.93;0.70;;;21.50;74.50;;;;;;4966556;28;20235;-70
2023/08/04 09:14:49;;;;;;;0.50;0.50;;;21.50;74.50;;;;;;4978571;28;20184;-71
2023/08/04 09:17:33;;;;;;;0.50;0.50;;;21.50;74.50;;;;;;4971382;28;20204;-71
2023/08/04 09:20:01;;;;;;;0.95;0.52;;;21.50;75.30;;;;;;4988911;28;20185;-70
2023/08/04 09:22:27;;;;;;;0.50;0.50;;;21.50;74.50;;;;;;4959507;28;20193;-70
2023/08/04 09:24:59;;;;;;;0.68;0.68;;;21.50;74.50;;;;;;4992138;28;20185;-70
2023/08/04 09:27:30;;;;;;;0.70;0.70;;;21.50;74.60;;;;;;5001565;28;20234;-71
2023/08/04 09:30:01;;;;;;;0.98;0.70;;;21.50;74.60;;;;;;4998174;28;20185;-71
2023/08/04 09:32:28;;;;;;;0.50;0.50;;;21.50;74.50;;;;;;4985597;28;20208;-70
2023/08/04 09:35:12;;;;;;;1.33;0.70;;;21.50;74.50;;;;;;4989089;28;20193;-70
2023/08/04 09:37:39;;;;;;;0.70;0.70;;;21.50;74.50;;;;;;4991286;28;20204;-70
2023/08/04 09:40:20;;;;;;;0.68;0.68;;;21.50;74.60;;;;;;4990773;28;20223;-70
2023/08/04 09:42:47;;;;;;;1.85;0.68;;;21.40;74.80;;;;;;4982346;28;20181;-70
2023/08/04 09:45:15;;;;;;;0.98;0.70;;;21.50;74.90;;;;;;5004768;28;20184;-70
2023/08/04 09:47:47;;;;;;;0.60;0.60;;;21.40;74.80;;;;;;5004218;28;20218;-71
2023/08/04 09:50:13;;;;;;;1.20;0.63;;;21.50;75.00;;;;;;5011961;28;20195;-70
2023/08/04 09:52:39;;;;;;;0.80;0.73;;;21.50;74.90;;;;;;4986628;28;20183;-70
2023/08/04 09:55:08;;;;;;;0.60;0.50;;;21.50;75.00;;;;;;5005015;28;20598;-70
2023/08/04 09:57:35;;;;;;;0.65;0.50;;;21.50;75.00;;;;;;4993784;28;20698;-70
2023/08/04 10:00:01;;;;;;;0.60;0.60;;;21.50;75.00;;;;;;4994554;28;20196;-71
2023/08/04 10:02:27;;;;;;;0.80;0.60;;;21.50;75.00;;;;;;5002119;28;20216;-71
2023/08/04 10:04:54;;;;;;;0.50;0.50;;;21.50;75.00;;;;;;4988648;28;20184;-71
2023/08/04 10:07:20;;;;;;;0.50;0.50;;;21.50;75.00;;;;;;4978186;28;20208;-71
2023/08/04 10:09:47;;;;;;;0.50;0.50;;;21.50;75.00;;;;;;4994482;28;20191;-70
2023/08/04 10:12:16;;;;;;;0.50;0.50;;;21.50;75.00;;;;;;4986440;28;20189;-71
2023/08/04 10:14:42;;;;;;;0.50;0.50;;;21.50;75.00;;;;;;5002915;28;20559;-70
2023/08/04 10:17:08;;;;;;;0.50;0.50;;;21.50;75.00;;;;;;4990795;28;20277;-70
2023/08/04 10:19:35;;;;;;;0.60;0.60;;;21.50;75.90;;;;;;4992186;28;20212;-72
2023/08/04 10:22:20;;;;;;;0.52;0.52;;;21.50;75.10;;;;;;4996582;28;20172;-70
2023/08/04 10:24:46;;;;;;;0.90;0.90;;;21.50;75.10;;;;;;4998174;28;20180;-70
2023/08/04 10:27:20;;;;;;;0.60;0.60;;;21.50;75.00;;;;;;4981944;28;20267;-70
2023/08/04 10:30:10;;;;;;;0.55;0.55;;;21.50;75.00;;;;;;4966954;28;20197;-70
2023/08/04 10:32:38;;;;;;;1.00;0.63;;;21.50;75.00;;;;;;5011657;28;20271;-70
2023/08/04 10:35:06;;;;;;;0.65;0.50;;;21.50;75.00;;;;;;5003012;28;20213;-70
2023/08/04 10:37:53;;;;;;;0.70;0.60;;;21.50;75.00;;;;;;4978316;28;20236;-70
2023/08/04 10:40:38;;;;;;;0.50;0.50;;;21.50;75.00;;;;;;4991876;28;20195;-70
2023/08/04 10:43:08;;;;;;;0.60;0.60;;;21.50;75.10;;;;;;4998064;28;20183;-70
2023/08/04 10:45:52;;;;;;;1.00;0.60;;;21.60;75.10;;;;;;5002575;28;20193;-70
2023/08/04 10:48:23;;;;;;;0.65;0.60;;;21.60;75.10;;;;;;4994514;28;20219;-71
2023/08/04 10:50:50;;;;;;;0.60;0.50;;;21.60;75.10;;;;;;5006140;28;20184;-70
2023/08/04 10:53:16;;;;;;;0.70;0.70;;;21.60;75.10;;;;;;4982356;28;20184;-71
2023/08/04 10:55:54;;;;;;;0.50;0.50;;;21.60;75.00;;;;;;4994047;28;20299;-70
2023/08/04 10:58:21;;;;;;;0.50;0.50;;;21.60;75.00;;;;;;5002453;28;20205;-72
2023/08/04 11:00:47;;;;;;;0.60;0.60;;;21.60;75.10;;;;;;4997665;28;20186;-70
2023/08/04 11:03:26;;;;;;;0.82;0.60;;;21.60;75.10;;;;;;4990371;28;20184;-70
2023/08/04 11:05:53;;;;;;;0.60;0.60;;;21.60;75.10;;;;;;4993284;28;20215;-70
2023/08/04 11:08:21;;;;;;;0.60;0.60;;;21.60;75.10;;;;;;4977825;28;20209;-70
2023/08/04 11:10:50;;;;;;;0.40;0.40;;;21.60;75.10;;;;;;4986035;28;20664;-70
2023/08/04 11:13:19;;;;;;;0.60;0.60;;;21.60;75.10;;;;;;4993422;28;20211;-70
2023/08/04 11:15:45;;;;;;;0.60;0.60;;;21.50;75.00;;;;;;4986211;28;20209;-70
2023/08/04 11:18:21;;;;;;;0.63;0.63;;;21.50;75.00;;;;;;4977491;28;20267;-70
2023/08/04 11:20:46;;;;;;;0.55;0.55;;;21.50;75.00;;;;;;4971623;28;20180;-70
2023/08/04 11:23:12;;;;;;;0.93;0.70;;;21.50;75.00;;;;;;4997252;28;20168;-70
2023/08/04 11:25:40;;;;;;;0.70;0.70;;;21.50;75.20;;;;;;5003237;28;20185;-70
2023/08/04 11:28:07;;;;;;;0.68;0.50;;;21.50;75.20;;;;;;4993724;28;20587;-71
2023/08/04 11:30:34;;;;;;;0.47;0.47;;;21.50;75.30;;;;;;4987200;28;20196;-70
2023/08/04 11:33:07;;;;;;;0.82;0.60;;;21.50;75.20;;;;;;4973027;28;20659;-70
2023/08/04 11:35:33;;;;;;;0.75;0.75;;;21.50;75.30;;;;;;4994854;28;20644;-70
2023/08/04 11:38:05;;;;;;;0.65;0.65;;;21.50;75.30;;;;;;4969348;28;20205;-70
2023/08/04 11:40:31;;;;;;;0.75;0.75;;;21.50;75.30;;;;;;4969228;28;20219;-71
2023/08/04 11:42:59;;;;;;;0.60;0.60;;;21.50;75.30;;;;;;4986806;28;20183;-70
2023/08/04 11:45:31;;;;;;;0.60;0.60;;;21.50;75.30;;;;;;4993571;28;20188;-70
2023/08/04 11:47:58;;;;;;;0.50;0.50;;;21.50;75.40;;;;;;5005986;28;20223;-70
2023/08/04 11:50:27;;;;;;;0.60;0.60;;;21.50;75.40;;;;;;4980739;28;20192;-74
2023/08/04 11:52:53;;;;;;;0.52;0.52;;;21.50;75.30;;;;;;4989029;28;20569;-71
2023/08/04 11:55:19;;;;;;;0.50;0.50;;;21.50;75.20;;;;;;4998518;28;20271;-71
2023/08/04 11:57:52;;;;;;;0.68;0.68;;;21.50;75.30;;;;;;5001181;28;20208;-70
2023/08/04 12:00:39;;;;;;;0.70;0.70;;;21.60;75.50;;;;;;5000755;28;20242;-70
2023/08/04 12:03:05;;;;;;;0.60;0.60;;;21.60;75.30;;;;;;4974754;28;20195;-70
2023/08/04 12:05:38;;;;;;;0.77;0.70;;;21.60;75.30;;;;;;4961846;28;20203;-70
2023/08/04 12:08:14;;;;;;;0.82;0.70;;;21.60;75.30;;;;;;4982869;28;20220;-70
2023/08/04 12:10:41;;;;;;;0.60;0.60;;;21.60;75.20;;;;;;4986744;28;20187;-70
2023/08/04 12:13:07;;;;;;;0.57;0.55;;;21.60;75.20;;;;;;4988176;28;20180;-70
2023/08/04 12:15:54;;;;;;;0.40;0.40;;;21.60;75.10;;;;;;4971065;28;20238;-70
2023/08/04 12:18:28;;;;;;;0.80;0.80;;;21.60;75.10;;;;;;4968329;28;20272;-71
2023/08/04 12:20:56;;;;;;;0.77;0.68;;;21.60;75.20;;;;;;4985113;28;20181;-71
2023/08/04 12:23:22;;;;;;;0.60;0.60;;;21.60;75.10;;;;;;4992119;28;20212;-70
2023/08/04 12:25:48;;;;;;;0.60;0.60;;;21.60;75.10;;;;;;4985234;28;20216;-71
2023/08/04 12:28:14;;;;;;;0.50;0.50;;;21.60;75.20;;;;;;5002233;28;20212;-70
2023/08/04 12:30:39;;;;;;;1.10;0.63;;;21.60;75.10;;;;;;4984514;28;20191;-70
2023/08/04 12:33:05;;;;;;;0.50;0.50;;;21.60;75.20;;;;;;4968643;28;20195;-70
2023/08/04 12:35:31;;;;;;;0.40;0.40;;;21.60;75.20;;;;;;5001160;28;20212;-71
2023/08/04 12:37:57;;;;;;;0.50;0.50;;;21.60;75.30;;;;;;4979727;28;20242;-70
2023/08/04 12:40:23;;;;;;;0.50;0.50;;;21.60;75.30;;;;;;4971807;28;20279;-70
2023/08/04 12:42:49;;;;;;;0.70;0.70;;;21.60;75.30;;;;;;5004933;28;20629;-70
2023/08/04 12:45:14;;;;;;;0.50;0.50;;;21.60;75.40;;;;;;4973321;28;20187;-71
2023/08/04 12:47:40;;;;;;;0.63;0.52;;;21.60;75.40;;;;;;4984409;28;20220;-70
2023/08/04 12:50:07;;;;;;;0.60;0.60;;;21.60;75.40;;;;;;4983052;28;20263;-70